Time;durP1;ratioP1;P1;durP2;ratioP2;P2;SDS_P1;SDS_P2;PMS_P1;PMS_P2;Temp;Humidity;BMP_temperature;BMP_pressure;BME280_temperature;BME280_humidity;BME280_pressure;Samples;Min_cycle;Max_cycle;Signal;HPM_P1;HPM_P2
2022/09/03 00:00:34;;;;;;;;;6.00;6.00;;;;;;;;5013126;28;45416;-79
2022/09/03 00:03:05;;;;;;;;;7.67;7.33;;;;;;;;5026849;28;45360;-79
2022/09/03 00:05:36;;;;;;;;;7.00;7.00;;;;;;;;5052962;28;45467;-79
2022/09/03 00:08:22;;;;;;;;;9.00;8.00;;;;;;;;5052552;28;45411;-79
2022/09/03 00:11:05;;;;;;;;;8.33;7.67;;;;;;;;5052890;28;45428;-80
2022/09/03 00:13:36;;;;;;;;;9.00;7.00;;;;;;;;5053064;28;45422;-80
2022/09/03 00:16:08;;;;;;;;;5.33;5.33;;;;;;;;5052900;28;45449;-80
2022/09/03 00:18:35;;;;;;;;;7.25;6.50;;;;;;;;5052562;28;47049;-79
2022/09/03 00:21:07;;;;;;;;;8.00;8.00;;;;;;;;5052647;28;45503;-79
2022/09/03 00:23:33;;;;;;;;;6.00;6.00;;;;;;;;5052592;28;45381;-79
2022/09/03 00:26:03;;;;;;;;;8.33;8.33;;;;;;;;5052732;28;45440;-80
2022/09/03 00:28:32;;;;;;;;;8.00;8.00;;;;;;;;5052535;28;45450;-80
2022/09/03 00:31:26;;;;;;;;;7.67;7.67;;;;;;;;5056407;27;45315;-79
2022/09/03 00:33:55;;;;;;;;;5.67;5.67;;;;;;;;5092430;27;45328;-79
2022/09/03 00:36:24;;;;;;;;;8.00;8.00;;;;;;;;5096665;27;45388;-79
2022/09/03 00:38:50;;;;;;;;;8.00;8.00;;;;;;;;5098029;27;47460;-79
2022/09/03 00:41:19;;;;;;;;;6.33;6.33;;;;;;;;5098974;27;45461;-79
2022/09/03 00:44:03;;;;;;;;;6.00;6.00;;;;;;;;5099006;27;45384;-79
2022/09/03 00:46:40;;;;;;;;;6.00;6.00;;;;;;;;5099077;27;45273;-79
2022/09/03 00:49:13;;;;;;;;;5.33;5.33;;;;;;;;5098759;27;46419;-79
2022/09/03 00:51:43;;;;;;;;;7.67;7.67;;;;;;;;5095489;27;45282;-80
2022/09/03 00:54:24;;;;;;;;;7.67;7.67;;;;;;;;5088187;27;45386;-79
2022/09/03 00:57:07;;;;;;;;;9.00;8.00;;;;;;;;5099002;27;45526;-79
2022/09/03 00:59:38;;;;;;;;;7.00;7.00;;;;;;;;5098943;27;45259;-79
2022/09/03 01:02:06;;;;;;;;;6.00;6.00;;;;;;;;5098774;27;45418;-79
2022/09/03 01:04:34;;;;;;;;;7.67;7.00;;;;;;;;5078830;27;45434;-79
2022/09/03 01:07:11;;;;;;;;;8.33;8.33;;;;;;;;5077919;27;45490;-79
2022/09/03 01:09:40;;;;;;;;;6.00;6.00;;;;;;;;5078215;27;46224;-80
2022/09/03 01:12:18;;;;;;;;;7.33;7.33;;;;;;;;5078235;27;45315;-79
2022/09/03 01:14:55;;;;;;;;;7.00;7.00;;;;;;;;5064957;27;45379;-79
2022/09/03 01:17:29;;;;;;;;;6.00;6.00;;;;;;;;5078061;27;45451;-78
2022/09/03 01:20:03;;;;;;;;;8.00;7.00;;;;;;;;5077566;28;46437;-79
2022/09/03 01:22:48;;;;;;;;;9.00;6.00;;;;;;;;5077945;27;45416;-79
2022/09/03 01:25:16;;;;;;;;;8.00;8.00;;;;;;;;5077965;27;45400;-79
2022/09/03 01:27:53;;;;;;;;;7.33;6.00;;;;;;;;5077897;27;45374;-79
2022/09/03 01:30:19;;;;;;;;;6.00;6.00;;;;;;;;5077742;27;47099;-79
2022/09/03 01:32:56;;;;;;;;;5.25;5.25;;;;;;;;5077833;27;45274;-79
2022/09/03 01:35:24;;;;;;;;;5.00;5.00;;;;;;;;5077757;27;45314;-79
2022/09/03 01:37:58;;;;;;;;;8.33;8.00;;;;;;;;5077622;27;45389;-79
2022/09/03 01:40:29;;;;;;;;;8.67;8.00;;;;;;;;5077587;27;46021;-79
2022/09/03 01:42:54;;;;;;;;;7.00;7.00;;;;;;;;5077664;27;45364;-78
2022/09/03 01:45:21;;;;;;;;;8.67;8.67;;;;;;;;5077791;28;45407;-79
2022/09/03 01:48:01;;;;;;;;;6.00;6.00;;;;;;;;5077817;27;45193;-79
2022/09/03 01:50:48;;;;;;;;;7.00;7.00;;;;;;;;5063935;27;47217;-79
2022/09/03 01:53:16;;;;;;;;;8.00;6.00;;;;;;;;5077426;27;45241;-79
2022/09/03 01:55:50;;;;;;;;;6.33;6.33;;;;;;;;5077548;27;45422;-79
2022/09/03 01:58:34;;;;;;;;;8.67;8.67;;;;;;;;5077238;27;45507;-78
2022/09/03 02:01:02;;;;;;;;;6.00;6.00;;;;;;;;5077120;28;46274;-79
2022/09/03 02:03:36;;;;;;;;;7.00;7.00;;;;;;;;5076760;27;45458;-79
2022/09/03 02:06:02;;;;;;;;;6.50;6.50;;;;;;;;5077531;27;45309;-79
2022/09/03 02:08:28;;;;;;;;;7.33;7.33;;;;;;;;5077246;27;45384;-79
2022/09/03 02:10:58;;;;;;;;;7.67;7.67;;;;;;;;5076875;27;46483;-79
2022/09/03 02:13:27;;;;;;;;;7.00;7.00;;;;;;;;5077329;27;45411;-79
2022/09/03 02:15:54;;;;;;;;;8.00;8.00;;;;;;;;5077146;27;45645;-78
2022/09/03 02:18:23;;;;;;;;;7.00;7.00;;;;;;;;5077056;28;45504;-79
2022/09/03 02:20:48;;;;;;;;;7.00;7.00;;;;;;;;5077010;27;45927;-79
2022/09/03 02:23:14;;;;;;;;;7.67;7.67;;;;;;;;5076998;28;45394;-78
2022/09/03 02:25:47;;;;;;;;;6.33;6.33;;;;;;;;5059037;28;45278;-79
2022/09/03 02:28:13;;;;;;;;;7.67;7.00;;;;;;;;5077095;27;45460;-79
2022/09/03 02:30:39;;;;;;;;;6.33;6.33;;;;;;;;5076930;28;45521;-79
2022/09/03 02:33:04;;;;;;;;;6.67;6.67;;;;;;;;5076221;27;46125;-79
2022/09/03 02:35:29;;;;;;;;;6.67;6.67;;;;;;;;5077227;27;45372;-79
2022/09/03 02:37:54;;;;;;;;;7.00;6.00;;;;;;;;5076924;27;45496;-79
2022/09/03 02:40:19;;;;;;;;;6.00;6.00;;;;;;;;5076889;28;46026;-78
2022/09/03 02:42:45;;;;;;;;;8.00;7.67;;;;;;;;5058950;28;45392;-78
2022/09/03 02:45:26;;;;;;;;;6.67;6.67;;;;;;;;5076827;27;45374;-78
2022/09/03 02:47:53;;;;;;;;;5.67;5.67;;;;;;;;5076633;28;45438;-79
2022/09/03 02:50:19;;;;;;;;;3.75;3.75;;;;;;;;5076530;28;45531;-79
2022/09/03 02:52:44;;;;;;;;;7.33;6.00;;;;;;;;5076436;27;45343;-79
2022/09/03 02:55:09;;;;;;;;;9.33;7.00;;;;;;;;5076559;27;45277;-79
2022/09/03 02:57:34;;;;;;;;;5.67;5.67;;;;;;;;5076774;28;45325;-79
2022/09/03 03:00:00;;;;;;;;;6.33;6.33;;;;;;;;5075820;28;47082;-79
2022/09/03 03:02:25;;;;;;;;;6.00;6.00;;;;;;;;5057968;27;45784;-79
2022/09/03 03:04:50;;;;;;;;;6.33;6.33;;;;;;;;5076723;27;45463;-78
2022/09/03 03:07:15;;;;;;;;;6.50;6.50;;;;;;;;5076300;27;45418;-79
2022/09/03 03:09:40;;;;;;;;;8.00;6.33;;;;;;;;5076287;27;45523;-78
2022/09/03 03:12:06;;;;;;;;;4.67;4.67;;;;;;;;5076538;28;45673;-79
2022/09/03 03:14:31;;;;;;;;;5.33;4.67;;;;;;;;5076304;28;45456;-78
2022/09/03 03:16:56;;;;;;;;;5.33;5.33;;;;;;;;5076134;28;45342;-78
2022/09/03 03:19:22;;;;;;;;;6.00;6.00;;;;;;;;5076114;27;46234;-79
2022/09/03 03:21:47;;;;;;;;;6.00;6.00;;;;;;;;5076429;28;45454;-79
2022/09/03 03:24:12;;;;;;;;;7.00;6.33;;;;;;;;5076974;27;45406;-78
2022/09/03 03:26:37;;;;;;;;;6.00;6.00;;;;;;;;5078496;28;45336;-79
2022/09/03 03:29:06;;;;;;;;;5.00;5.00;;;;;;;;5075903;28;45303;-78
2022/09/03 03:31:31;;;;;;;;;6.33;6.33;;;;;;;;5075817;27;45375;-78
2022/09/03 03:33:58;;;;;;;;;5.33;5.33;;;;;;;;5076200;27;45320;-78
2022/09/03 03:36:25;;;;;;;;;9.00;9.00;;;;;;;;5075812;27;45412;-78
2022/09/03 03:38:54;;;;;;;;;7.00;6.67;;;;;;;;5075951;28;45725;-78
2022/09/03 03:41:21;;;;;;;;;4.00;4.00;;;;;;;;5075638;27;45562;-79
2022/09/03 03:43:46;;;;;;;;;5.67;5.67;;;;;;;;5075769;27;45463;-79
2022/09/03 03:46:12;;;;;;;;;6.67;6.00;;;;;;;;5075738;27;45390;-79
2022/09/03 03:48:38;;;;;;;;;5.33;5.33;;;;;;;;5075794;27;45423;-79
2022/09/03 03:51:05;;;;;;;;;9.67;7.00;;;;;;;;5075437;28;45409;-78
2022/09/03 03:53:31;;;;;;;;;7.00;6.00;;;;;;;;5076009;27;45324;-78
2022/09/03 03:55:57;;;;;;;;;6.33;6.33;;;;;;;;5075636;27;45499;-79
2022/09/03 03:58:23;;;;;;;;;5.67;5.67;;;;;;;;5075558;27;45259;-78
2022/09/03 04:00:48;;;;;;;;;5.00;5.00;;;;;;;;5075384;28;45567;-78
2022/09/03 04:03:14;;;;;;;;;4.67;4.67;;;;;;;;5075453;28;45306;-79
2022/09/03 04:05:39;;;;;;;;;6.67;6.67;;;;;;;;5075798;28;45336;-78
2022/09/03 04:08:04;;;;;;;;;6.00;6.00;;;;;;;;5075564;27;45469;-80
2022/09/03 04:10:30;;;;;;;;;5.33;5.33;;;;;;;;5076121;28;45323;-78
2022/09/03 04:12:55;;;;;;;;;6.33;6.00;;;;;;;;5079154;27;45352;-78
2022/09/03 04:15:20;;;;;;;;;5.00;5.00;;;;;;;;5079111;27;45336;-78
2022/09/03 04:17:45;;;;;;;;;5.33;5.33;;;;;;;;5078993;27;45526;-79
2022/09/03 04:20:10;;;;;;;;;8.00;7.00;;;;;;;;5079062;27;45520;-78
2022/09/03 04:22:35;;;;;;;;;7.33;7.33;;;;;;;;5079076;27;45302;-79
2022/09/03 04:25:01;;;;;;;;;6.00;6.00;;;;;;;;5079195;27;45394;-79
2022/09/03 04:27:26;;;;;;;;;6.67;5.67;;;;;;;;5078929;27;46227;-78
2022/09/03 04:29:51;;;;;;;;;5.00;5.00;;;;;;;;5078556;27;45359;-78
2022/09/03 04:35:00;;;;;;;;;5.33;5.33;;;;;;;;5078926;27;45445;-79
2022/09/03 04:37:25;;;;;;;;;6.33;6.33;;;;;;;;5078848;27;46337;-78
2022/09/03 04:39:51;;;;;;;;;5.00;5.00;;;;;;;;5078446;27;45383;-79
2022/09/03 04:42:16;;;;;;;;;5.67;5.67;;;;;;;;5078676;27;45314;-79
2022/09/03 04:44:42;;;;;;;;;6.33;6.33;;;;;;;;5078354;27;45377;-79
2022/09/03 04:47:07;;;;;;;;;6.00;5.00;;;;;;;;5078370;27;45504;-78
2022/09/03 04:49:33;;;;;;;;;7.00;6.00;;;;;;;;5078864;27;45530;-78
2022/09/03 04:51:58;;;;;;;;;6.00;6.00;;;;;;;;5078385;27;45490;-78
2022/09/03 04:54:23;;;;;;;;;7.00;7.00;;;;;;;;5078510;27;45285;-79
2022/09/03 04:56:49;;;;;;;;;6.00;6.00;;;;;;;;5078034;27;46863;-79
2022/09/03 04:59:14;;;;;;;;;6.00;6.00;;;;;;;;5078655;27;45356;-79
2022/09/03 05:01:39;;;;;;;;;5.00;5.00;;;;;;;;5078553;27;45248;-78
2022/09/03 05:04:05;;;;;;;;;6.67;6.67;;;;;;;;5078311;27;45520;-79
2022/09/03 05:06:31;;;;;;;;;5.00;5.00;;;;;;;;5078173;27;46272;-78
2022/09/03 05:08:56;;;;;;;;;7.00;6.00;;;;;;;;5077948;27;45436;-79
2022/09/03 05:11:22;;;;;;;;;6.33;6.00;;;;;;;;5078063;28;45294;-79
2022/09/03 05:13:48;;;;;;;;;4.33;4.33;;;;;;;;5078233;27;45313;-78
2022/09/03 05:16:14;;;;;;;;;5.00;5.00;;;;;;;;5078004;27;45298;-79
2022/09/03 05:18:41;;;;;;;;;5.00;5.00;;;;;;;;5078334;27;45465;-79
2022/09/03 05:21:07;;;;;;;;;6.33;5.00;;;;;;;;5077634;27;45537;-79
2022/09/03 05:23:37;;;;;;;;;4.67;4.67;;;;;;;;5077865;27;45359;-74
2022/09/03 05:26:07;;;;;;;;;4.00;4.00;;;;;;;;5077621;28;46021;-89
2022/09/03 05:28:33;;;;;;;;;5.33;5.00;;;;;;;;5078174;27;45341;-84
2022/09/03 05:30:59;;;;;;;;;5.67;5.67;;;;;;;;5077992;27;45244;-78
2022/09/03 05:33:25;;;;;;;;;7.67;7.67;;;;;;;;5078274;27;45307;-77
2022/09/03 05:35:50;;;;;;;;;8.67;8.67;;;;;;;;5059515;28;45319;-78
2022/09/03 05:38:16;;;;;;;;;11.50;9.50;;;;;;;;5077781;27;45509;-83
2022/09/03 05:40:41;;;;;;;;;9.00;9.00;;;;;;;;5077669;27;45322;-82
2022/09/03 05:43:07;;;;;;;;;9.50;9.00;;;;;;;;5077646;27;45221;-77
2022/09/03 05:45:32;;;;;;;;;10.33;10.33;;;;;;;;5077835;27;47077;-77
2022/09/03 05:47:58;;;;;;;;;12.50;12.50;;;;;;;;5077388;27;45424;-79
2022/09/03 05:50:23;;;;;;;;;12.00;12.00;;;;;;;;5077637;27;45225;-79
2022/09/03 05:52:48;;;;;;;;;9.00;9.00;;;;;;;;5077638;27;45222;-79
2022/09/03 05:55:14;;;;;;;;;10.25;10.25;;;;;;;;5076945;27;47194;-78
2022/09/03 05:57:40;;;;;;;;;10.75;10.00;;;;;;;;5077635;27;45560;-76
2022/09/03 06:00:05;;;;;;;;;9.50;9.50;;;;;;;;5077651;27;45439;-77
2022/09/03 06:02:31;;;;;;;;;9.25;9.00;;;;;;;;5077475;27;45427;-81
2022/09/03 06:04:56;;;;;;;;;12.00;10.50;;;;;;;;5077011;27;46122;-77
2022/09/03 06:07:22;;;;;;;;;11.00;10.00;;;;;;;;5077138;27;45409;-74
2022/09/03 06:09:47;;;;;;;;;12.25;10.50;;;;;;;;5076801;27;45414;-80
2022/09/03 06:12:12;;;;;;;;;10.00;9.33;;;;;;;;5077448;27;45463;-75
2022/09/03 06:14:37;;;;;;;;;10.50;10.50;;;;;;;;5077144;28;46389;-80
2022/09/03 06:17:02;;;;;;;;;9.00;8.33;;;;;;;;5077150;27;45336;-80
2022/09/03 06:19:28;;;;;;;;;7.00;7.00;;;;;;;;5077334;27;45455;-80
2022/09/03 06:21:54;;;;;;;;;6.00;5.33;;;;;;;;5077154;28;45453;-79
2022/09/03 06:24:23;;;;;;;;;6.67;5.33;;;;;;;;5076610;27;47031;-79
2022/09/03 06:26:49;;;;;;;;;6.00;6.00;;;;;;;;5077055;28;45299;-79
2022/09/03 06:29:14;;;;;;;;;7.00;6.33;;;;;;;;5077003;28;45530;-80
2022/09/03 06:31:39;;;;;;;;;7.00;6.67;;;;;;;;5076837;27;45431;-80
2022/09/03 06:34:05;;;;;;;;;8.33;7.00;;;;;;;;5076198;28;45377;-80
2022/09/03 06:36:30;;;;;;;;;6.00;6.00;;;;;;;;5076792;27;45420;-78
2022/09/03 06:38:56;;;;;;;;;8.33;8.33;;;;;;;;5076727;28;45381;-79
2022/09/03 06:41:26;;;;;;;;;7.00;5.33;;;;;;;;5076949;27;45331;-79
2022/09/03 06:43:58;;;;;;;;;5.33;5.33;;;;;;;;5076742;27;46353;-79
2022/09/03 06:46:23;;;;;;;;;7.00;7.00;;;;;;;;5076416;27;45537;-79
2022/09/03 06:48:49;;;;;;;;;5.00;5.00;;;;;;;;5077040;27;45536;-80
2022/09/03 06:51:16;;;;;;;;;9.00;7.67;;;;;;;;5076506;27;45395;-79
2022/09/03 06:53:43;;;;;;;;;6.00;4.33;;;;;;;;5075855;27;46291;-79
2022/09/03 06:56:10;;;;;;;;;5.00;5.00;;;;;;;;5076582;28;45279;-79
2022/09/03 06:58:36;;;;;;;;;6.00;5.00;;;;;;;;5076518;28;45355;-80
2022/09/03 07:01:06;;;;;;;;;7.67;6.00;;;;;;;;5076412;28;45434;-79
2022/09/03 07:03:31;;;;;;;;;5.00;5.00;;;;;;;;5076090;27;46047;-80
2022/09/03 07:06:00;;;;;;;;;5.67;5.67;;;;;;;;5076347;27;45298;-80
2022/09/03 07:08:26;;;;;;;;;4.67;4.67;;;;;;;;5076023;27;45365;-79
2022/09/03 07:10:51;;;;;;;;;6.33;5.00;;;;;;;;5076250;28;45323;-79
2022/09/03 07:13:17;;;;;;;;;4.67;4.67;;;;;;;;5076197;27;46098;-80
2022/09/03 07:15:42;;;;;;;;;5.00;5.00;;;;;;;;5074968;28;45493;-80
2022/09/03 07:18:08;;;;;;;;;4.75;4.75;;;;;;;;5055775;28;45423;-79
2022/09/03 07:20:33;;;;;;;;;6.67;6.67;;;;;;;;5068564;28;45455;-79
2022/09/03 07:22:58;;;;;;;;;5.50;5.25;;;;;;;;5075122;27;45557;-79
2022/09/03 07:25:25;;;;;;;;;6.00;6.00;;;;;;;;5057657;28;45474;-80
2022/09/03 07:27:51;;;;;;;;;6.00;6.00;;;;;;;;5075590;28;45362;-80
2022/09/03 07:30:18;;;;;;;;;4.67;4.67;;;;;;;;5075353;28;45479;-79
2022/09/03 07:32:44;;;;;;;;;7.00;6.00;;;;;;;;5074920;27;46309;-79
2022/09/03 07:35:09;;;;;;;;;4.00;4.00;;;;;;;;5075420;27;45428;-79
2022/09/03 07:37:35;;;;;;;;;6.00;6.00;;;;;;;;5075265;27;45377;-80
2022/09/03 07:40:00;;;;;;;;;4.00;4.00;;;;;;;;5075624;27;45348;-80
2022/09/03 07:42:26;;;;;;;;;5.33;5.33;;;;;;;;5075521;28;46272;-79
2022/09/03 07:44:52;;;;;;;;;4.67;4.67;;;;;;;;5075353;27;45348;-80
2022/09/03 07:47:18;;;;;;;;;5.00;5.00;;;;;;;;5075452;27;45335;-79
2022/09/03 07:49:44;;;;;;;;;5.00;5.00;;;;;;;;5075243;27;45355;-79
2022/09/03 07:52:09;;;;;;;;;5.00;5.00;;;;;;;;5074843;27;45379;-79
2022/09/03 07:54:34;;;;;;;;;8.33;6.33;;;;;;;;5057083;28;45376;-80
2022/09/03 07:57:00;;;;;;;;;4.00;4.00;;;;;;;;5075266;27;45341;-80
2022/09/03 07:59:25;;;;;;;;;5.00;5.00;;;;;;;;5075629;28;45238;-80
2022/09/03 08:01:51;;;;;;;;;6.67;6.67;;;;;;;;5075173;27;45957;-79
2022/09/03 08:04:17;;;;;;;;;5.00;5.00;;;;;;;;5075423;27;45361;-80
2022/09/03 08:06:42;;;;;;;;;4.33;4.33;;;;;;;;5075429;27;45383;-79
2022/09/03 08:09:10;;;;;;;;;6.00;6.00;;;;;;;;5075458;27;45368;-80
2022/09/03 08:11:36;;;;;;;;;6.00;5.00;;;;;;;;5075349;27;46362;-80
2022/09/03 08:14:06;;;;;;;;;5.00;4.67;;;;;;;;5075261;27;45390;-79
2022/09/03 08:16:33;;;;;;;;;5.67;5.67;;;;;;;;5075464;28;46334;-79
2022/09/03 08:18:59;;;;;;;;;5.00;4.00;;;;;;;;5075587;28;45667;-78
2022/09/03 08:21:25;;;;;;;;;6.67;6.67;;;;;;;;5074763;28;46057;-80
2022/09/03 08:23:51;;;;;;;;;5.00;5.00;;;;;;;;5075228;27;45375;-79
2022/09/03 08:26:17;;;;;;;;;5.00;5.00;;;;;;;;5075118;28;45350;-78
2022/09/03 08:28:42;;;;;;;;;3.33;3.33;;;;;;;;5075417;28;45329;-79
2022/09/03 08:31:10;;;;;;;;;4.67;4.67;;;;;;;;5074705;28;45358;-79
2022/09/03 08:33:38;;;;;;;;;5.00;5.00;;;;;;;;5075130;28;45364;-79
2022/09/03 08:36:04;;;;;;;;;5.00;5.00;;;;;;;;5074917;27;45424;-79
2022/09/03 08:38:31;;;;;;;;;5.00;5.00;;;;;;;;5075236;28;45359;-79
2022/09/03 08:41:15;;;;;;;;;5.00;5.00;;;;;;;;5075115;28;45703;-79
2022/09/03 08:44:01;;;;;;;;;6.00;6.00;;;;;;;;5061847;28;45408;-78
2022/09/03 08:46:33;;;;;;;;;5.33;5.00;;;;;;;;5012436;28;45356;-79
2022/09/03 08:48:58;;;;;;;;;4.00;4.00;;;;;;;;5012266;28;45444;-79
2022/09/03 08:51:26;;;;;;;;;5.00;5.00;;;;;;;;5011919;28;46034;-80
2022/09/03 08:53:54;;;;;;;;;5.67;5.00;;;;;;;;5012265;28;45452;-79
2022/09/03 08:56:23;;;;;;;;;4.67;4.00;;;;;;;;5012777;28;45525;-78
2022/09/03 08:58:48;;;;;;;;;4.33;3.67;;;;;;;;5015842;28;45650;-80
2022/09/03 09:01:23;;;;;;;;;3.00;3.00;;;;;;;;5015690;28;46873;-79
2022/09/03 09:03:57;;;;;;;;;4.00;4.00;;;;;;;;5042235;28;45407;-79
2022/09/03 09:06:28;;;;;;;;;6.67;5.67;;;;;;;;5056018;28;45340;-78
2022/09/03 09:09:09;;;;;;;;;4.00;4.00;;;;;;;;5055633;28;45351;-79
2022/09/03 09:11:34;;;;;;;;;5.00;5.00;;;;;;;;5055496;28;46369;-79
2022/09/03 09:14:00;;;;;;;;;5.33;4.67;;;;;;;;5055587;28;45418;-79
2022/09/03 09:16:29;;;;;;;;;5.67;3.33;;;;;;;;5055657;28;45471;-79
2022/09/03 09:19:03;;;;;;;;;4.67;4.00;;;;;;;;5055405;28;45394;-79
2022/09/03 09:21:31;;;;;;;;;4.00;4.00;;;;;;;;5041759;28;45406;-79
2022/09/03 09:24:01;;;;;;;;;5.00;5.00;;;;;;;;5082992;27;45324;-79
2022/09/03 09:26:27;;;;;;;;;6.33;6.00;;;;;;;;5098265;27;45461;-79
2022/09/03 09:29:05;;;;;;;;;4.00;4.00;;;;;;;;5098618;27;45462;-80
2022/09/03 09:31:31;;;;;;;;;6.00;5.67;;;;;;;;5083717;27;45337;-79
2022/09/03 09:34:06;;;;;;;;;4.00;4.00;;;;;;;;5097818;27;45371;-79
2022/09/03 09:36:39;;;;;;;;;4.00;4.00;;;;;;;;5098074;27;45350;-80
2022/09/03 09:39:08;;;;;;;;;4.00;4.00;;;;;;;;5098378;27;45356;-80
2022/09/03 09:41:34;;;;;;;;;5.33;5.33;;;;;;;;5097892;27;47210;-80
2022/09/03 09:44:06;;;;;;;;;5.00;5.00;;;;;;;;5098003;27;45388;-80
2022/09/03 09:46:35;;;;;;;;;5.33;5.00;;;;;;;;5098320;27;45394;-80
2022/09/03 09:49:00;;;;;;;;;4.67;4.67;;;;;;;;5097694;27;45464;-80
2022/09/03 09:51:30;;;;;;;;;4.67;4.33;;;;;;;;5097703;27;45876;-79
2022/09/03 09:54:04;;;;;;;;;5.00;5.00;;;;;;;;5098162;27;45327;-79
2022/09/03 09:56:29;;;;;;;;;5.33;4.67;;;;;;;;5097753;27;45385;-79
2022/09/03 09:59:01;;;;;;;;;5.00;5.00;;;;;;;;5098033;27;45516;-80
2022/09/03 10:01:29;;;;;;;;;5.00;5.00;;;;;;;;5097569;27;46213;-79
2022/09/03 10:03:58;;;;;;;;;3.33;3.33;;;;;;;;5082683;27;45349;-78
2022/09/03 10:09:14;;;;;;;;;5.67;4.00;;;;;;;;5075794;27;45367;-79
2022/09/03 10:11:42;;;;;;;;;5.00;5.00;;;;;;;;5077069;27;46085;-79
2022/09/03 10:14:17;;;;;;;;;5.33;5.33;;;;;;;;5077390;27;45466;-79
2022/09/03 10:16:47;;;;;;;;;3.67;3.00;;;;;;;;5077181;27;45293;-79
2022/09/03 10:19:22;;;;;;;;;3.67;3.67;;;;;;;;5077055;27;45422;-79
2022/09/03 10:21:57;;;;;;;;;6.00;5.00;;;;;;;;5077112;27;46094;-79
2022/09/03 10:24:51;;;;;;;;;3.67;3.67;;;;;;;;5076892;27;45400;-80
2022/09/03 10:27:17;;;;;;;;;4.33;4.33;;;;;;;;5063637;28;45358;-79
2022/09/03 10:29:43;;;;;;;;;5.00;4.67;;;;;;;;5076902;27;45413;-79
2022/09/03 10:32:26;;;;;;;;;5.00;5.00;;;;;;;;5076565;28;45405;-79
2022/09/03 10:34:57;;;;;;;;;6.00;6.00;;;;;;;;5076908;27;45355;-79
2022/09/03 10:38:01;;;;;;;;;5.00;5.00;;;;;;;;5077075;28;45252;-79
2022/09/03 10:40:30;;;;;;;;;4.00;4.00;;;;;;;;5014308;28;45534;-79
2022/09/03 10:43:01;;;;;;;;;4.00;4.00;;;;;;;;5014358;28;45518;-79
2022/09/03 10:45:29;;;;;;;;;5.00;4.00;;;;;;;;5013947;28;45395;-79
2022/09/03 10:48:26;;;;;;;;;5.00;5.00;;;;;;;;5014207;28;45702;-79
2022/09/03 10:50:51;;;;;;;;;4.00;4.00;;;;;;;;4994116;28;45457;-80
2022/09/03 10:53:24;;;;;;;;;4.00;4.00;;;;;;;;4994170;28;45433;-79
2022/09/03 10:56:07;;;;;;;;;3.67;3.67;;;;;;;;4994138;28;45449;-79
2022/09/03 10:58:52;;;;;;;;;4.67;4.67;;;;;;;;4994003;28;45366;-79
2022/09/03 11:01:21;;;;;;;;;4.67;4.33;;;;;;;;4993871;28;45387;-79
2022/09/03 11:04:03;;;;;;;;;4.00;4.00;;;;;;;;5006744;28;46290;-79
2022/09/03 11:06:33;;;;;;;;;5.33;5.33;;;;;;;;5013906;28;45450;-78
2022/09/03 11:09:12;;;;;;;;;3.00;3.00;;;;;;;;5013586;28;45371;-80
2022/09/03 11:11:50;;;;;;;;;4.33;4.33;;;;;;;;5027307;28;45432;-80
2022/09/03 11:14:24;;;;;;;;;3.67;3.67;;;;;;;;5033175;28;46438;-79
2022/09/03 11:16:53;;;;;;;;;3.67;3.33;;;;;;;;5017010;28;45467;-79
2022/09/03 11:19:23;;;;;;;;;5.00;5.00;;;;;;;;5033079;28;45467;-79
2022/09/03 11:21:50;;;;;;;;;3.67;3.67;;;;;;;;5033552;28;45440;-79
2022/09/03 11:24:15;;;;;;;;;6.33;5.00;;;;;;;;5033288;28;46394;-79
2022/09/03 11:26:44;;;;;;;;;6.33;6.33;;;;;;;;5053892;28;45266;-80
2022/09/03 11:29:24;;;;;;;;;5.00;5.00;;;;;;;;5076057;28;45455;-79
2022/09/03 11:31:56;;;;;;;;;3.67;3.67;;;;;;;;5068711;27;45192;-80
2022/09/03 11:34:25;;;;;;;;;5.67;4.33;;;;;;;;5070066;27;47041;-79
2022/09/03 11:36:51;;;;;;;;;5.00;5.00;;;;;;;;5075474;27;45351;-79
2022/09/03 11:39:31;;;;;;;;;3.33;3.33;;;;;;;;5076261;28;45351;-79
2022/09/03 11:42:05;;;;;;;;;4.33;4.33;;;;;;;;5076232;27;45329;-79
2022/09/03 11:44:41;;;;;;;;;3.33;3.33;;;;;;;;5075439;27;46214;-79
2022/09/03 11:47:14;;;;;;;;;4.00;4.00;;;;;;;;5075769;27;45486;-79
2022/09/03 11:49:43;;;;;;;;;3.67;3.67;;;;;;;;5075743;28;45290;-79
2022/09/03 11:52:09;;;;;;;;;5.00;5.00;;;;;;;;5075719;27;45558;-79
2022/09/03 11:54:45;;;;;;;;;4.00;4.00;;;;;;;;5075503;28;46337;-79
2022/09/03 11:57:22;;;;;;;;;3.67;3.67;;;;;;;;5075909;28;45417;-80
2022/09/03 11:59:47;;;;;;;;;4.00;4.00;;;;;;;;5075763;28;45495;-79
2022/09/03 12:02:13;;;;;;;;;3.00;3.00;;;;;;;;5075714;28;45434;-80
2022/09/03 12:04:45;;;;;;;;;5.00;5.00;;;;;;;;5075675;27;45405;-78
2022/09/03 12:07:19;;;;;;;;;5.00;3.67;;;;;;;;5075456;28;45323;-79
2022/09/03 12:09:50;;;;;;;;;3.33;3.33;;;;;;;;5075624;28;45291;-79
2022/09/03 12:12:34;;;;;;;;;4.33;4.33;;;;;;;;5074743;28;45525;-79
2022/09/03 12:15:08;;;;;;;;;6.33;4.00;;;;;;;;5075560;28;46537;-79
2022/09/03 12:17:33;;;;;;;;;2.67;2.33;;;;;;;;5075712;27;45535;-78
2022/09/03 12:19:58;;;;;;;;;4.00;3.67;;;;;;;;5075611;27;45891;-79
2022/09/03 12:22:26;;;;;;;;;4.00;4.00;;;;;;;;5075266;28;45450;-79
2022/09/03 12:24:51;;;;;;;;;4.67;3.67;;;;;;;;5075491;28;47003;-79
2022/09/03 12:27:21;;;;;;;;;4.00;4.00;;;;;;;;5075031;28;45221;-79
2022/09/03 12:29:58;;;;;;;;;4.67;4.67;;;;;;;;5075445;28;45546;-79
2022/09/03 12:32:25;;;;;;;;;3.00;3.00;;;;;;;;5077075;28;45343;-79
2022/09/03 12:34:50;;;;;;;;;5.33;4.00;;;;;;;;5078444;27;46247;-79
2022/09/03 12:37:23;;;;;;;;;3.00;3.00;;;;;;;;5078712;28;45271;-79
2022/09/03 12:39:55;;;;;;;;;4.67;4.67;;;;;;;;5078931;27;45549;-79
2022/09/03 12:42:30;;;;;;;;;3.67;3.67;;;;;;;;5078354;27;45558;-79
2022/09/03 12:45:04;;;;;;;;;3.00;3.00;;;;;;;;5078525;27;45490;-79
2022/09/03 12:47:30;;;;;;;;;3.33;3.33;;;;;;;;5078887;27;45374;-79
2022/09/03 12:50:04;;;;;;;;;4.00;4.00;;;;;;;;5078604;27;45499;-79
2022/09/03 12:52:29;;;;;;;;;3.67;3.67;;;;;;;;5078352;27;45458;-79
2022/09/03 12:55:06;;;;;;;;;3.33;3.33;;;;;;;;5078578;27;45380;-79
2022/09/03 12:57:34;;;;;;;;;3.00;3.00;;;;;;;;5078261;28;45449;-80
2022/09/03 13:00:02;;;;;;;;;4.00;4.00;;;;;;;;5078041;27;45451;-79
2022/09/03 13:02:38;;;;;;;;;4.33;4.33;;;;;;;;5078365;27;45496;-79
2022/09/03 13:05:04;;;;;;;;;3.00;2.67;;;;;;;;5077581;27;45437;-79
2022/09/03 13:07:32;;;;;;;;;5.33;3.33;;;;;;;;5078534;27;45279;-80
2022/09/03 13:10:03;;;;;;;;;4.67;4.67;;;;;;;;5077929;27;45395;-79
2022/09/03 13:12:30;;;;;;;;;3.00;3.00;;;;;;;;5078110;27;45441;-79
2022/09/03 13:14:56;;;;;;;;;4.00;4.00;;;;;;;;5078131;27;46288;-78
2022/09/03 13:17:29;;;;;;;;;3.33;3.33;;;;;;;;5078179;27;45515;-78
2022/09/03 13:20:01;;;;;;;;;3.00;3.00;;;;;;;;5078432;27;45423;-78
2022/09/03 13:22:38;;;;;;;;;2.67;2.67;;;;;;;;5078186;27;45408;-80
2022/09/03 13:25:15;;;;;;;;;5.00;5.00;;;;;;;;5077585;28;45292;-79
2022/09/03 13:27:40;;;;;;;;;3.33;3.33;;;;;;;;5077825;27;45495;-79
2022/09/03 13:30:15;;;;;;;;;4.33;4.33;;;;;;;;5078353;27;45339;-79
2022/09/03 13:32:41;;;;;;;;;5.00;3.00;;;;;;;;5077789;27;45521;-79
2022/09/03 13:35:32;;;;;;;;;3.00;3.00;;;;;;;;5077690;27;45394;-78
2022/09/03 13:38:04;;;;;;;;;3.00;3.00;;;;;;;;5015271;28;45405;-79
2022/09/03 13:40:48;;;;;;;;;4.33;4.33;;;;;;;;5015038;28;45496;-79
2022/09/03 13:43:24;;;;;;;;;5.33;3.33;;;;;;;;5014572;28;45408;-79
2022/09/03 13:46:01;;;;;;;;;3.33;3.33;;;;;;;;5015069;28;45413;-79
2022/09/03 13:51:24;;;;;;;;;5.00;3.33;;;;;;;;5015169;28;45421;-79
2022/09/03 13:53:52;;;;;;;;;2.67;2.67;;;;;;;;5014588;28;45551;-79
2022/09/03 13:56:17;;;;;;;;;3.33;3.33;;;;;;;;5014958;28;47204;-79
2022/09/03 13:58:50;;;;;;;;;4.00;4.00;;;;;;;;5015032;28;45510;-79
2022/09/03 14:01:26;;;;;;;;;3.00;3.00;;;;;;;;5015105;28;45452;-79
2022/09/03 14:03:56;;;;;;;;;3.67;3.67;;;;;;;;5042332;28;45484;-79
2022/09/03 14:06:27;;;;;;;;;3.00;3.00;;;;;;;;5054749;28;48304;-80
2022/09/03 14:08:59;;;;;;;;;4.00;4.00;;;;;;;;5068649;28;45523;-79
2022/09/03 14:11:43;;;;;;;;;5.00;5.00;;;;;;;;5055033;28;45462;-79
2022/09/03 14:14:14;;;;;;;;;2.67;2.67;;;;;;;;5062019;27;45297;-79
2022/09/03 14:16:43;;;;;;;;;2.33;2.33;;;;;;;;5097761;27;45410;-78
2022/09/03 14:19:27;;;;;;;;;3.00;3.00;;;;;;;;5097582;27;45405;-79
2022/09/03 14:21:57;;;;;;;;;2.00;2.00;;;;;;;;5097764;27;45401;-80
2022/09/03 14:24:40;;;;;;;;;3.00;3.00;;;;;;;;5097152;27;45295;-80
2022/09/03 14:27:06;;;;;;;;;3.67;3.67;;;;;;;;5097365;27;46193;-79
2022/09/03 14:29:32;;;;;;;;;3.00;3.00;;;;;;;;5097449;27;45754;-79
2022/09/03 14:31:57;;;;;;;;;3.00;3.00;;;;;;;;5097610;27;45284;-79
2022/09/03 14:34:35;;;;;;;;;2.33;2.33;;;;;;;;5097520;27;45362;-80
2022/09/03 14:37:12;;;;;;;;;3.00;3.00;;;;;;;;5096910;27;45388;-79
2022/09/03 14:39:49;;;;;;;;;4.00;4.00;;;;;;;;5097156;27;45303;-80
2022/09/03 14:42:31;;;;;;;;;3.00;3.00;;;;;;;;5097352;27;45347;-79
2022/09/03 14:44:59;;;;;;;;;5.00;3.67;;;;;;;;5097290;27;45472;-79
2022/09/03 14:47:24;;;;;;;;;2.00;2.00;;;;;;;;5097311;27;46299;-79
2022/09/03 14:49:52;;;;;;;;;2.25;2.25;;;;;;;;5097144;27;45428;-79
2022/09/03 14:52:17;;;;;;;;;4.00;4.00;;;;;;;;5096786;27;45482;-79
2022/09/03 14:54:49;;;;;;;;;5.00;3.50;;;;;;;;5096575;27;45770;-78
2022/09/03 14:57:17;;;;;;;;;3.00;3.00;;;;;;;;5083364;27;45403;-78
2022/09/03 14:59:47;;;;;;;;;3.00;3.00;;;;;;;;5096902;27;45901;-79
2022/09/03 15:02:18;;;;;;;;;4.00;4.00;;;;;;;;5096658;27;45391;-78
2022/09/03 15:04:56;;;;;;;;;3.00;3.00;;;;;;;;5076837;28;45379;-78